CheckWX is a tool to help pilots better visualize weather data.  It is not intended as a substitute for an official pre-flight weather briefing.

07:36:44 UTC

KMCB METAR
Mc Comb / Pike County / John E Lewis Field Airport
Mc Comb, Mississippi, USA
Current

44 mins ago

KMCB 210653Z AUTO 16010KT 10SM BKN009 22/20 A2985 RMK AO2 SLP101 T02170200
Observed
Oct-21 @ 06:53 UTC
Wind
  • 160° at 10 KTS
Visibility
10 SM
Flight Rules
IFR
Cloud Levels
  • Broken at 900' AGL
Temperature
22°C / 72°F
Dewpoint
20°C / 68°F
Humidity
88%
Altimeter
29.85" Hg
Pressure
1010.82 hPa
Previous

56 mins ago

KMCB 210641Z AUTO 17009KT 10SM BKN009 22/20 A2986 RMK AO2 T02170200
Observed
Oct-21 @ 06:41 UTC
Wind
  • 170° at 9 KTS
Visibility
10 SM
Flight Rules
IFR
Cloud Levels
  • Broken at 900' AGL
Temperature
22°C / 72°F
Dewpoint
20°C / 68°F
Humidity
88%
Altimeter
29.86" Hg
Pressure
1011.22 hPa
Previous

2 hours ago

KMCB 210553Z AUTO 16008KT 10SM CLR 22/19 A2986 RMK AO2 SLP104 T02170194 10250 20217 403110144 58017
Observed
Oct-21 @ 05:53 UTC
Wind
  • 160° at 8 KTS
Visibility
10 SM
Flight Rules
VFR
Cloud Levels
  • Clear skies
Temperature
22°C / 72°F
Dewpoint
19°C / 66°F
Humidity
83%
Altimeter
29.86" Hg
Pressure
1011.22 hPa